Daonith — 5BXB3 — position and weather

sailwx.info

Track history (hours):
 
Tides and Currents Weather Stations Pressure Air Temp Water Temp Dewpoint Dewpoint Depression Visibility Wind Speed Wind Dir Waves Ship Positions

Daonith

Last reported at 2018-Feb-22 07:52 UTC. Time now 2018-Feb-24 00:56 UTC.
Position N 55°28' E 015°59'.

Length 92 m; draft 5.6 m.

Type: Ship. MMSI: 210632708.

Date/timePositionNaut miles runAvg speedWind from/ knotsBaromVisibWave heightAir tempDewpointWater temp
2018-Feb-22 07:52N 55°28' E 015°59'410.4
2018-Feb-22 07:31N 55°28' E 015°52'510.7
2018-Feb-22 07:00N 55°27' E 015°43'510.8
2018-Feb-22 06:30N 55°26' E 015°33'510.9
2018-Feb-22 06:00N 55°26' E 015°24'610.9
2018-Feb-22 05:28N 55°25' E 015°14'510.7
2018-Feb-22 05:01N 55°25' E 015°05'510.5
2018-Feb-22 04:30N 55°24' E 014°56'710.4
2018-Feb-22 03:53N 55°24' E 014°44'6 9.6
2018-Feb-22 03:15N 55°21' E 014°35'310.1
2018-Feb-22 03:00N 55°19' E 014°32'510.3
2018-Feb-22 02:29N 55°15' E 014°26'510.6
2018-Feb-22 02:00N 55°11' E 014°21'610.6
2018-Feb-22 01:26N 55°06' E 014°14'610.7
2018-Feb-22 00:54N 55°01' E 014°08'1210.9
2018-Feb-21 23:46N 54°57' E 013°48'4411.2
2018-Feb-21 19:48N 54°41' E 012°36'511.2
2018-Feb-21 19:21N 54°39' E 012°29'511.1
2018-Feb-21 18:56N 54°36' E 012°22'510.6
2018-Feb-21 18:30N 54°32' E 012°18'20 9.6
2018-Feb-21 16:28N 54°25' E 011°47'511.1
2018-Feb-21 16:00N 54°27' E 011°39'511.2
2018-Feb-21 15:30N 54°29' E 011°30'611.1
2018-Feb-21 15:01N 54°32' E 011°22'510.6
2018-Feb-21 14:30N 54°34' E 011°14'510.0
2018-Feb-21 14:00N 54°35' E 011°05'610.9
2018-Feb-21 13:30N 54°35' E 010°56'611.4
2018-Feb-21 13:00N 54°34' E 010°46'611.3
2018-Feb-21 12:31N 54°34' E 010°36'611.0
2018-Feb-21 12:01N 54°32' E 010°28'25 4.9
2018-Feb-21 06:52N 54°22' E 009°47'3 7.9
2018-Feb-21 06:30N 54°20' E 009°44'4 7.4
2018-Feb-21 06:01N 54°17' E 009°39'4 7.9
2018-Feb-21 05:30N 54°14' E 009°36'4 8.4
2018-Feb-21 05:01N 54°11' E 009°31'4 8.6
2018-Feb-21 04:30N 54°10' E 009°24'4 7.6
2018-Feb-21 03:59N 54°06' E 009°20'4 8.5
2018-Feb-21 03:30N 54°02' E 009°18'4 8.0
2018-Feb-21 03:00N 53°59' E 009°16'4 8.5
2018-Feb-21 02:31N 53°55' E 009°12'2 4.7
2018-Feb-21 02:00N 53°54' E 009°09'0 0.0
2018-Feb-21 01:30N 53°54' E 009°09'1 2.7
2018-Feb-21 01:00N 53°53' E 009°07'0 0.2
2018-Feb-21 00:31N 53°53' E 009°07'2 4.4
2018-Feb-21 00:00N 53°52' E 009°03'510.5
2018-Feb-20 23:30N 53°51' E 008°55'510.1
2018-Feb-20 23:00N 53°51' E 008°46'5 9.5
2018-Feb-20 22:30N 53°54' E 008°41'5 9.2
2018-Feb-20 22:00N 53°58' E 008°35'5 9.7
2018-Feb-20 21:30N 53°59' E 008°27'5 8.6
2018-Feb-20 20:56N 53°59' E 008°19'8 9.7
2018-Feb-20 20:04N 53°59' E 008°05'2 9.8
2018-Feb-20 19:52N 54°00' E 008°02'135 9.4
2018-Feb-20 05:27N 53°10' E 004°30'612.0
2018-Feb-20 04:57N 53°05' E 004°25'612.1
2018-Feb-20 04:30N 53°00' E 004°21'911.2
2018-Feb-20 03:40N 52°52' E 004°15'210.9
2018-Feb-20 03:30N 52°50' E 004°14'910.2
2018-Feb-20 02:40N 52°44' E 004°05'1610.2
2018-Feb-20 01:08N 52°32' E 003°47'110.0
2018-Feb-20 01:00N 52°31' E 003°46'510.0
2018-Feb-20 00:29N 52°28' E 003°40'5 9.7
2018-Feb-19 23:59N 52°24' E 003°34'5 9.6
2018-Feb-19 23:30N 52°21' E 003°29'5 9.6
2018-Feb-19 22:58N 52°16' E 003°27'33 9.9
2018-Feb-19 19:38N 51°43' E 003°16'711.9
2018-Feb-19 19:02N 51°37' E 003°22'112.9
2018-Feb-19 18:57N 51°36' E 003°22'613.1
2018-Feb-19 18:30N 51°31' E 003°26'713.3
2018-Feb-19 18:00N 51°26' E 003°34'610.9
2018-Feb-19 17:29N 51°25' E 003°43'612.5
2018-Feb-19 17:00N 51°22' E 003°51'510.4
2018-Feb-19 16:30N 51°26' E 003°56'4 7.8
2018-Feb-19 16:00N 51°25' E 004°02'4 8.3
2018-Feb-19 15:30N 51°22' E 004°07'4 7.8
2018-Feb-19 15:00N 51°24' E 004°12'4 8.5
2018-Feb-19 14:30N 51°21' E 004°17'0 0.0
2018-Feb-19 14:01N 51°21' E 004°17'1 2.2
2018-Feb-19 13:30N 51°20' E 004°18'1 1.7
2018-Feb-19 13:00N 51°19' E 004°18'0 0.0
2018-Feb-18 15:42N 51°19' E 004°18'0 0.9
2018-Feb-18 15:30N 51°19' E 004°19'2 3.9
2018-Feb-18 15:01N 51°21' E 004°17'0 0.0
2018-Feb-18 14:30N 51°21' E 004°17'1 1.8
2018-Feb-18 14:00N 51°21' E 004°16'4 8.3
2018-Feb-18 13:30N 51°24' E 004°11'510.6
2018-Feb-18 13:00N 51°23' E 004°02'3 6.5
2018-Feb-18 12:30N 51°24' E 003°58'612.0
2018-Feb-18 12:00N 51°21' E 003°50'611.8
2018-Feb-18 11:30N 51°24' E 003°42'510.0
2018-Feb-18 10:59N 51°26' E 003°34'511.3
2018-Feb-18 10:30N 51°25' E 003°25'510.6
2018-Feb-18 10:00N 51°24' E 003°17'5 9.8
2018-Feb-18 09:30N 51°24' E 003°09'5 9.7
2018-Feb-18 09:00N 51°24' E 003°01'5 9.7
2018-Feb-18 08:30N 51°22' E 002°54'5 9.9
2018-Feb-18 08:00N 51°22' E 002°46'5 9.1
2018-Feb-18 07:27N 51°22' E 002°38'4 8.3
2018-Feb-18 06:59N 51°22' E 002°32'4 8.1
2018-Feb-18 06:30N 51°21' E 002°26'4 7.6
2018-Feb-18 05:59N 51°19' E 002°20'4 7.9
2018-Feb-18 05:30N 51°17' E 002°15'4 8.1
2018-Feb-18 05:00N 51°15' E 002°09'4 8.3
2018-Feb-18 04:30N 51°13' E 002°03'4 8.4
2018-Feb-18 04:00N 51°11' E 001°57'4 9.0
2018-Feb-18 03:30N 51°09' E 001°51'5 9.8
2018-Feb-18 03:00N 51°06' E 001°45'611.8
2018-Feb-18 02:30N 51°01' E 001°39'612.3
2018-Feb-18 02:00N 50°57' E 001°32'612.7
2018-Feb-18 01:30N 50°52' E 001°26'613.1
2018-Feb-18 01:01N 50°46' E 001°22'4512.7
2018-Feb-17 21:28N 50°23' E 000°21'714.0
2018-Feb-17 20:57N 50°21' E 000°10'613.6
2018-Feb-17 20:30N 50°19' E 000°01'713.3
2018-Feb-17 20:00N 50°18' W 000°09'4810.6
2018-Feb-17 15:30N 50°05' W 001°21'4 8.1
2018-Feb-17 15:00N 50°03' W 001°27'4 8.1
2018-Feb-17 14:30N 50°02' W 001°33'4 8.0
2018-Feb-17 14:00N 50°00' W 001°38'4 8.3
2018-Feb-17 13:30N 49°59' W 001°44'4 9.0
2018-Feb-17 13:00N 49°57' W 001°51'5 9.2
2018-Feb-17 12:30N 49°56' W 001°58'5 9.6
2018-Feb-17 12:00N 49°55' W 002°05'3010.3
2018-Feb-17 09:02N 49°50' W 002°52'111.3
2018-Feb-17 08:56N 49°50' W 002°53'1411.6
2018-Feb-17 07:45N 49°43' W 003°12'411.4
2018-Feb-17 07:24N 49°40' W 003°17'98 9.9
2018-Feb-16 21:30N 48°51' W 005°27'  
Track history (hours):
 
Tides and Currents Weather Stations Pressure Air Temp Water Temp Dewpoint Dewpoint Depression Visibility Wind Speed Wind Dir Waves Ship Positions

Daonith

Last reported at 2018-Feb-22 07:52 UTC. Time now 2018-Feb-24 00:56 UTC.
Position N 55°28' E 015°59'.

Length 92 m; draft 5.6 m.

Type: Ship. MMSI: 210632708.

Date/timePositionNaut miles runAvg speedWind from/ knotsBaromVisibWave heightAir tempDewpointWater temp
2018-Feb-22 07:52N 55°28' E 015°59'410.4
2018-Feb-22 07:31N 55°28' E 015°52'510.7
2018-Feb-22 07:00N 55°27' E 015°43'510.8
2018-Feb-22 06:30N 55°26' E 015°33'510.9
2018-Feb-22 06:00N 55°26' E 015°24'610.9
2018-Feb-22 05:28N 55°25' E 015°14'510.7
2018-Feb-22 05:01N 55°25' E 015°05'510.5
2018-Feb-22 04:30N 55°24' E 014°56'710.4
2018-Feb-22 03:53N 55°24' E 014°44'6 9.6
2018-Feb-22 03:15N 55°21' E 014°35'310.1
2018-Feb-22 03:00N 55°19' E 014°32'510.3
2018-Feb-22 02:29N 55°15' E 014°26'510.6
2018-Feb-22 02:00N 55°11' E 014°21'610.6
2018-Feb-22 01:26N 55°06' E 014°14'610.7
2018-Feb-22 00:54N 55°01' E 014°08'1210.9
2018-Feb-21 23:46N 54°57' E 013°48'4411.2
2018-Feb-21 19:48N 54°41' E 012°36'511.2
2018-Feb-21 19:21N 54°39' E 012°29'511.1
2018-Feb-21 18:56N 54°36' E 012°22'510.6
2018-Feb-21 18:30N 54°32' E 012°18'20 9.6
2018-Feb-21 16:28N 54°25' E 011°47'511.1
2018-Feb-21 16:00N 54°27' E 011°39'511.2
2018-Feb-21 15:30N 54°29' E 011°30'611.1
2018-Feb-21 15:01N 54°32' E 011°22'510.6
2018-Feb-21 14:30N 54°34' E 011°14'510.0
2018-Feb-21 14:00N 54°35' E 011°05'610.9
2018-Feb-21 13:30N 54°35' E 010°56'611.4
2018-Feb-21 13:00N 54°34' E 010°46'611.3
2018-Feb-21 12:31N 54°34' E 010°36'611.0
2018-Feb-21 12:01N 54°32' E 010°28'25 4.9
2018-Feb-21 06:52N 54°22' E 009°47'3 7.9
2018-Feb-21 06:30N 54°20' E 009°44'4 7.4
2018-Feb-21 06:01N 54°17' E 009°39'4 7.9
2018-Feb-21 05:30N 54°14' E 009°36'4 8.4
2018-Feb-21 05:01N 54°11' E 009°31'4 8.6
2018-Feb-21 04:30N 54°10' E 009°24'4 7.6
2018-Feb-21 03:59N 54°06' E 009°20'4 8.5
2018-Feb-21 03:30N 54°02' E 009°18'4 8.0
2018-Feb-21 03:00N 53°59' E 009°16'4 8.5
2018-Feb-21 02:31N 53°55' E 009°12'2 4.7
2018-Feb-21 02:00N 53°54' E 009°09'0 0.0
2018-Feb-21 01:30N 53°54' E 009°09'1 2.7
2018-Feb-21 01:00N 53°53' E 009°07'0 0.2
2018-Feb-21 00:31N 53°53' E 009°07'2 4.4
2018-Feb-21 00:00N 53°52' E 009°03'510.5
2018-Feb-20 23:30N 53°51' E 008°55'510.1
2018-Feb-20 23:00N 53°51' E 008°46'5 9.5
2018-Feb-20 22:30N 53°54' E 008°41'5 9.2
2018-Feb-20 22:00N 53°58' E 008°35'5 9.7
2018-Feb-20 21:30N 53°59' E 008°27'5 8.6
2018-Feb-20 20:56N 53°59' E 008°19'8 9.7
2018-Feb-20 20:04N 53°59' E 008°05'2 9.8
2018-Feb-20 19:52N 54°00' E 008°02'135 9.4
2018-Feb-20 05:27N 53°10' E 004°30'612.0
2018-Feb-20 04:57N 53°05' E 004°25'612.1
2018-Feb-20 04:30N 53°00' E 004°21'911.2
2018-Feb-20 03:40N 52°52' E 004°15'210.9
2018-Feb-20 03:30N 52°50' E 004°14'910.2
2018-Feb-20 02:40N 52°44' E 004°05'1610.2
2018-Feb-20 01:08N 52°32' E 003°47'110.0
2018-Feb-20 01:00N 52°31' E 003°46'510.0
2018-Feb-20 00:29N 52°28' E 003°40'5 9.7
2018-Feb-19 23:59N 52°24' E 003°34'5 9.6
2018-Feb-19 23:30N 52°21' E 003°29'5 9.6
2018-Feb-19 22:58N 52°16' E 003°27'33 9.9
2018-Feb-19 19:38N 51°43' E 003°16'711.9
2018-Feb-19 19:02N 51°37' E 003°22'112.9
2018-Feb-19 18:57N 51°36' E 003°22'613.1
2018-Feb-19 18:30N 51°31' E 003°26'713.3
2018-Feb-19 18:00N 51°26' E 003°34'610.9
2018-Feb-19 17:29N 51°25' E 003°43'612.5
2018-Feb-19 17:00N 51°22' E 003°51'510.4
2018-Feb-19 16:30N 51°26' E 003°56'4 7.8
2018-Feb-19 16:00N 51°25' E 004°02'4 8.3
2018-Feb-19 15:30N 51°22' E 004°07'4 7.8
2018-Feb-19 15:00N 51°24' E 004°12'4 8.5
2018-Feb-19 14:30N 51°21' E 004°17'0 0.0
2018-Feb-19 14:01N 51°21' E 004°17'1 2.2
2018-Feb-19 13:30N 51°20' E 004°18'1 1.7
2018-Feb-19 13:00N 51°19' E 004°18'0 0.0
2018-Feb-18 15:42N 51°19' E 004°18'0 0.9
2018-Feb-18 15:30N 51°19' E 004°19'2 3.9
2018-Feb-18 15:01N 51°21' E 004°17'0 0.0
2018-Feb-18 14:30N 51°21' E 004°17'1 1.8
2018-Feb-18 14:00N 51°21' E 004°16'4 8.3
2018-Feb-18 13:30N 51°24' E 004°11'510.6
2018-Feb-18 13:00N 51°23' E 004°02'3 6.5
2018-Feb-18 12:30N 51°24' E 003°58'612.0
2018-Feb-18 12:00N 51°21' E 003°50'611.8
2018-Feb-18 11:30N 51°24' E 003°42'510.0
2018-Feb-18 10:59N 51°26' E 003°34'511.3
2018-Feb-18 10:30N 51°25' E 003°25'510.6
2018-Feb-18 10:00N 51°24' E 003°17'5 9.8
2018-Feb-18 09:30N 51°24' E 003°09'5 9.7
2018-Feb-18 09:00N 51°24' E 003°01'5 9.7
2018-Feb-18 08:30N 51°22' E 002°54'5 9.9
2018-Feb-18 08:00N 51°22' E 002°46'5 9.1
2018-Feb-18 07:27N 51°22' E 002°38'4 8.3
2018-Feb-18 06:59N 51°22' E 002°32'4 8.1
2018-Feb-18 06:30N 51°21' E 002°26'4 7.6
2018-Feb-18 05:59N 51°19' E 002°20'4 7.9
2018-Feb-18 05:30N 51°17' E 002°15'4 8.1
2018-Feb-18 05:00N 51°15' E 002°09'4 8.3
2018-Feb-18 04:30N 51°13' E 002°03'4 8.4
2018-Feb-18 04:00N 51°11' E 001°57'4 9.0
2018-Feb-18 03:30N 51°09' E 001°51'5 9.8
2018-Feb-18 03:00N 51°06' E 001°45'611.8
2018-Feb-18 02:30N 51°01' E 001°39'612.3
2018-Feb-18 02:00N 50°57' E 001°32'612.7
2018-Feb-18 01:30N 50°52' E 001°26'613.1
2018-Feb-18 01:01N 50°46' E 001°22'4512.7
2018-Feb-17 21:28N 50°23' E 000°21'714.0
2018-Feb-17 20:57N 50°21' E 000°10'613.6
2018-Feb-17 20:30N 50°19' E 000°01'713.3
2018-Feb-17 20:00N 50°18' W 000°09'4810.6
2018-Feb-17 15:30N 50°05' W 001°21'4 8.1
2018-Feb-17 15:00N 50°03' W 001°27'4 8.1
2018-Feb-17 14:30N 50°02' W 001°33'4 8.0
2018-Feb-17 14:00N 50°00' W 001°38'4 8.3
2018-Feb-17 13:30N 49°59' W 001°44'4 9.0
2018-Feb-17 13:00N 49°57' W 001°51'5 9.2
2018-Feb-17 12:30N 49°56' W 001°58'5 9.6
2018-Feb-17 12:00N 49°55' W 002°05'3010.3
2018-Feb-17 09:02N 49°50' W 002°52'111.3
2018-Feb-17 08:56N 49°50' W 002°53'1411.6
2018-Feb-17 07:45N 49°43' W 003°12'411.4
2018-Feb-17 07:24N 49°40' W 003°17'98 9.9
2018-Feb-16 21:30N 48°51' W 005°27'  

Dump ship's entire track history